Austinville, Virginia
Current Conditions -  °F | °C
As of 6:15 AM on Sunday 23 Nov 2014 (Local Time) from KHLX Reporting Station
Clear Clear  
Wind Chill:   Ceiling: Unl
Heat Index:   Visibility: 10mi
Dew Point: -1°   Wind: 6mph
Humidity: 61%   Direction: 190°S
Pressure: 30.21"   Gusts: NA
Location:  36.85°N, 80.91°W
Report Text: KHLX 231115Z AUTO 19005KT 10SM CLR 06/M01 A3021 RMK AO2 T00621009
Loading
Personal Weather Stations






























Interactive Weather Map New forecast layout! Learn more

10-Day Weather Forecast

Advertisements
Track Severe Weather on mobile